Time;durP1;ratioP1;P1;durP2;ratioP2;P2;SDS_P1;SDS_P2;PMS_P1;PMS_P2;Temp;Humidity;BMP_temperature;BMP_pressure;BME280_temperature;BME280_humidity;BME280_pressure;Samples;Min_cycle;Max_cycle;Signal;HPM_P1;HPM_P2
2022/03/24 00:01:57;;;;;;;9.60;9.30;;;4.20;99.90;;;;;;6320481;22;20195;-80
2022/03/24 00:04:30;;;;;;;9.80;9.50;;;4.20;99.90;;;;;;6322592;22;20312;-81
2022/03/24 00:06:58;;;;;;;9.80;9.50;;;4.10;99.90;;;;;;6323243;22;20197;-80
2022/03/24 00:09:28;;;;;;;9.73;9.43;;;4.10;99.90;;;;;;6322872;22;20193;-80
2022/03/24 00:12:01;;;;;;;9.80;9.50;;;4.10;99.90;;;;;;6330174;22;20264;-80
2022/03/24 00:14:34;;;;;;;9.73;9.43;;;4.00;99.90;;;;;;6324241;22;20196;-80
2022/03/24 00:17:13;;;;;;;10.00;9.70;;;4.00;99.90;;;;;;6329362;22;20268;-80
2022/03/24 00:19:42;;;;;;;10.00;9.70;;;4.00;99.90;;;;;;6322110;22;20269;-80
2022/03/24 00:22:13;;;;;;;9.90;9.60;;;3.90;99.90;;;;;;6321204;22;20201;-80
2022/03/24 00:24:42;;;;;;;9.70;9.40;;;3.90;99.90;;;;;;6321624;22;20197;-81
2022/03/24 00:27:10;;;;;;;9.70;9.40;;;3.90;99.90;;;;;;6321700;22;20708;-81
2022/03/24 00:32:28;;;;;;;9.70;9.40;;;3.90;99.90;;;;;;6321858;22;20200;-81
2022/03/24 00:34:59;;;;;;;9.60;9.30;;;3.90;99.90;;;;;;6322940;22;20201;-81
2022/03/24 00:37:27;;;;;;;9.57;9.27;;;4.00;99.90;;;;;;6322927;22;20208;-81
2022/03/24 00:39:55;;;;;;;9.67;9.37;;;3.90;99.90;;;;;;6321786;22;20208;-81
2022/03/24 00:42:25;;;;;;;9.67;9.37;;;3.90;99.90;;;;;;6322134;22;20205;-80
2022/03/24 00:45:03;;;;;;;9.50;9.20;;;3.90;99.90;;;;;;6322033;22;20262;-81
2022/03/24 00:47:35;;;;;;;9.70;9.40;;;3.90;99.90;;;;;;6322515;22;20207;-80
2022/03/24 00:50:03;;;;;;;9.80;9.50;;;3.80;99.90;;;;;;6321580;22;20221;-81
2022/03/24 00:52:34;;;;;;;9.70;9.40;;;3.80;99.90;;;;;;6320389;22;20211;-81
2022/03/24 00:55:02;;;;;;;9.77;9.47;;;3.80;99.90;;;;;;6324572;22;20330;-81
2022/03/24 00:57:30;;;;;;;9.83;9.53;;;3.70;99.90;;;;;;6330737;22;20193;-81
2022/03/24 01:00:03;;;;;;;9.60;9.30;;;3.70;99.90;;;;;;6330145;22;20257;-81
2022/03/24 01:02:31;;;;;;;9.60;9.30;;;3.70;99.90;;;;;;6325691;22;20197;-81
2022/03/24 01:05:01;;;;;;;9.70;9.40;;;3.70;99.90;;;;;;6328579;22;20215;-81
2022/03/24 01:07:35;;;;;;;9.63;9.33;;;3.60;99.90;;;;;;6329339;22;20243;-81
2022/03/24 01:10:07;;;;;;;9.60;9.30;;;3.60;99.90;;;;;;6321164;22;20230;-81
2022/03/24 01:12:39;;;;;;;9.37;9.07;;;3.50;99.90;;;;;;6320969;22;20250;-81
2022/03/24 01:15:16;;;;;;;9.50;9.20;;;3.50;99.90;;;;;;6322503;22;20248;-81
2022/03/24 01:17:44;;;;;;;9.53;9.23;;;3.50;99.90;;;;;;6321858;22;20195;-81
2022/03/24 01:23:00;;;;;;;9.53;9.23;;;3.40;99.90;;;;;;6330308;22;20199;-79
2022/03/24 01:25:31;;;;;;;9.60;9.30;;;3.40;99.90;;;;;;6343132;22;20219;-80
2022/03/24 01:30:54;;;;;;;9.80;9.50;;;3.30;99.90;;;;;;6324181;22;20254;-79
2022/03/24 01:33:25;;;;;;;9.50;9.20;;;3.30;99.90;;;;;;6327815;22;20244;-79
2022/03/24 01:35:53;;;;;;;10.00;9.70;;;3.30;99.90;;;;;;6324142;22;20200;-79
2022/03/24 01:38:23;;;;;;;9.50;9.20;;;3.20;99.90;;;;;;6323813;22;20195;-79
2022/03/24 01:40:52;;;;;;;9.77;9.47;;;3.20;99.90;;;;;;6323453;22;20263;-79
2022/03/24 01:43:22;;;;;;;9.57;9.27;;;3.20;99.90;;;;;;6322313;22;20243;-79
2022/03/24 01:46:02;;;;;;;9.77;9.47;;;3.00;99.90;;;;;;6322544;22;20189;-79
2022/03/24 01:48:30;;;;;;;9.80;9.50;;;2.90;99.90;;;;;;6322823;22;20193;-79
2022/03/24 01:50:58;;;;;;;9.60;9.30;;;2.90;99.90;;;;;;6322276;22;20203;-79
2022/03/24 01:53:28;;;;;;;9.77;9.47;;;2.90;99.90;;;;;;6321718;22;20201;-80
2022/03/24 01:55:58;;;;;;;9.67;9.37;;;2.90;99.90;;;;;;6321846;22;20261;-79
2022/03/24 01:58:27;;;;;;;10.20;9.90;;;2.70;99.90;;;;;;6328416;22;20219;-79
2022/03/24 02:01:34;;;;;;;9.97;9.67;;;2.60;99.90;;;;;;6331477;22;20197;-79
2022/03/24 02:04:05;;;;;;;9.97;9.67;;;2.50;99.90;;;;;;6331643;22;20196;-78
2022/03/24 02:06:41;;;;;;;9.73;9.43;;;2.60;99.90;;;;;;6333282;22;20185;-79
2022/03/24 02:09:11;;;;;;;9.83;9.53;;;2.60;99.90;;;;;;6331347;22;20192;-79
2022/03/24 02:11:40;;;;;;;9.80;9.50;;;2.60;99.90;;;;;;6331180;22;20272;-78
2022/03/24 02:14:11;;;;;;;9.70;9.40;;;2.60;99.90;;;;;;6331186;22;20201;-79
2022/03/24 02:16:48;;;;;;;10.00;9.70;;;2.60;99.90;;;;;;6332177;22;20200;-82
2022/03/24 02:19:18;;;;;;;9.80;9.50;;;2.60;99.90;;;;;;6329605;22;20243;-79
2022/03/24 02:21:48;;;;;;;9.80;9.50;;;2.50;99.90;;;;;;6325318;22;20189;-82
2022/03/24 02:24:24;;;;;;;9.60;9.30;;;2.60;99.90;;;;;;6324892;22;20214;-79
2022/03/24 02:26:59;;;;;;;9.73;9.43;;;2.60;99.90;;;;;;6325276;22;20197;-79
2022/03/24 02:29:26;;;;;;;9.67;9.37;;;2.60;99.90;;;;;;6323675;22;20260;-79
2022/03/24 02:31:55;;;;;;;10.10;9.80;;;2.60;99.90;;;;;;6323472;22;20244;-79
2022/03/24 02:34:42;;;;;;;9.80;9.50;;;2.60;99.90;;;;;;6323336;22;20208;-79
2022/03/24 02:37:12;;;;;;;10.10;9.80;;;2.50;99.90;;;;;;6324002;22;20195;-82
2022/03/24 02:39:48;;;;;;;10.10;9.80;;;2.50;99.90;;;;;;6324744;22;20200;-80
2022/03/24 02:42:20;;;;;;;9.83;9.53;;;2.40;99.90;;;;;;6323582;22;20193;-79
2022/03/24 02:44:56;;;;;;;9.73;9.43;;;2.40;99.90;;;;;;6322760;22;20270;-79
2022/03/24 02:47:25;;;;;;;9.90;9.60;;;2.40;99.90;;;;;;6327581;22;20727;-79
2022/03/24 02:49:56;;;;;;;9.80;9.50;;;2.40;99.90;;;;;;6321248;22;20201;-79
2022/03/24 02:52:24;;;;;;;10.00;9.70;;;2.40;99.90;;;;;;6321643;22;20189;-79
2022/03/24 02:55:02;;;;;;;10.00;9.70;;;2.40;99.90;;;;;;6322009;22;20267;-80
2022/03/24 02:57:31;;;;;;;10.03;9.73;;;2.40;99.90;;;;;;6322222;22;20219;-79
2022/03/24 03:00:01;;;;;;;10.07;9.77;;;2.40;99.90;;;;;;6327921;22;20211;-79
2022/03/24 03:02:30;;;;;;;10.00;9.70;;;2.30;99.90;;;;;;6329432;22;20197;-79
2022/03/24 03:05:01;;;;;;;9.60;9.30;;;2.30;99.90;;;;;;6322411;22;20205;-79
2022/03/24 03:07:30;;;;;;;9.90;9.60;;;2.30;99.90;;;;;;6321999;22;20197;-80
2022/03/24 03:10:01;;;;;;;9.80;9.50;;;2.30;99.90;;;;;;6321824;22;20231;-79
2022/03/24 03:12:29;;;;;;;9.73;9.43;;;2.20;99.90;;;;;;6321533;22;20313;-79
2022/03/24 03:15:01;;;;;;;9.63;9.33;;;2.20;99.90;;;;;;6321569;22;20209;-79
2022/03/24 03:17:29;;;;;;;9.73;9.43;;;2.20;99.90;;;;;;6322247;22;20638;-79
2022/03/24 03:19:57;;;;;;;9.60;9.30;;;2.20;99.90;;;;;;6321394;22;20206;-79
2022/03/24 03:22:29;;;;;;;9.80;9.50;;;2.20;99.90;;;;;;6321329;22;20223;-79
2022/03/24 03:25:04;;;;;;;9.60;9.30;;;2.20;99.90;;;;;;6321892;22;20253;-79
2022/03/24 03:27:35;;;;;;;9.80;9.50;;;2.10;99.90;;;;;;6321475;22;20263;-80
2022/03/24 03:30:05;;;;;;;9.60;9.30;;;2.10;99.90;;;;;;6322215;22;20192;-80
2022/03/24 03:32:33;;;;;;;9.80;9.50;;;2.10;99.90;;;;;;6322936;22;20189;-79
2022/03/24 03:35:03;;;;;;;9.50;9.20;;;2.10;99.90;;;;;;6323399;22;20292;-79
2022/03/24 03:37:34;;;;;;;9.97;9.67;;;2.00;99.90;;;;;;6330666;22;20189;-80
2022/03/24 03:40:10;;;;;;;9.70;9.40;;;1.90;99.90;;;;;;6322171;22;20197;-79
2022/03/24 03:42:38;;;;;;;9.90;9.60;;;1.90;99.90;;;;;;6322262;22;20197;-80
2022/03/24 03:45:08;;;;;;;9.90;9.60;;;1.90;99.90;;;;;;6341977;22;20220;-80
2022/03/24 03:47:37;;;;;;;10.00;9.70;;;1.90;99.90;;;;;;6342266;22;20215;-80
2022/03/24 03:50:07;;;;;;;9.90;9.60;;;1.90;99.90;;;;;;6330660;22;20189;-80
2022/03/24 03:52:37;;;;;;;10.10;9.80;;;1.90;99.90;;;;;;6327022;22;20189;-80
2022/03/24 03:55:14;;;;;;;10.10;9.80;;;1.80;99.90;;;;;;6326274;22;20213;-80
2022/03/24 03:57:44;;;;;;;10.10;9.80;;;1.80;99.90;;;;;;6325922;22;20204;-80
2022/03/24 04:03:03;;;;;;;9.97;9.67;;;1.60;99.90;;;;;;6324374;22;20204;-80
2022/03/24 04:05:40;;;;;;;9.90;9.60;;;1.50;99.90;;;;;;6323280;22;20268;-81
2022/03/24 04:08:10;;;;;;;10.03;9.73;;;1.50;99.90;;;;;;6325874;22;20185;-80
2022/03/24 04:10:50;;;;;;;10.10;9.80;;;1.50;99.90;;;;;;6322576;22;20199;-80
2022/03/24 04:13:19;;;;;;;10.20;9.90;;;1.50;99.90;;;;;;6322468;22;20251;-79
2022/03/24 04:15:47;;;;;;;9.77;9.47;;;1.50;99.90;;;;;;6323498;22;20200;-80
2022/03/24 04:18:17;;;;;;;10.03;9.73;;;1.50;99.90;;;;;;6322802;22;20196;-80
2022/03/24 04:20:46;;;;;;;9.93;9.63;;;1.50;99.90;;;;;;6323665;22;20499;-80
2022/03/24 04:23:15;;;;;;;10.00;9.70;;;1.50;99.90;;;;;;6323957;22;20276;-80
2022/03/24 04:25:54;;;;;;;9.90;9.60;;;1.40;99.90;;;;;;6330194;22;20200;-80
2022/03/24 04:28:24;;;;;;;9.80;9.50;;;1.40;99.90;;;;;;6327488;22;20200;-80
2022/03/24 04:30:53;;;;;;;9.77;9.47;;;1.40;99.90;;;;;;6327082;22;20242;-80
2022/03/24 04:33:23;;;;;;;9.90;9.60;;;1.30;99.90;;;;;;6335127;22;20205;-79
2022/03/24 04:35:54;;;;;;;9.80;9.50;;;1.30;99.90;;;;;;6342719;22;20227;-79
2022/03/24 04:38:24;;;;;;;9.90;9.60;;;1.30;99.90;;;;;;6327098;22;20196;-80
2022/03/24 04:40:59;;;;;;;10.30;10.00;;;1.30;99.90;;;;;;6324054;22;20231;-80
2022/03/24 04:43:29;;;;;;;9.90;9.60;;;1.20;99.90;;;;;;6323482;22;20220;-80
2022/03/24 04:45:59;;;;;;;9.93;9.63;;;1.10;99.90;;;;;;6325954;22;20193;-80
2022/03/24 04:48:35;;;;;;;9.30;9.00;;;1.10;99.90;;;;;;6330238;22;20244;-80
2022/03/24 04:51:07;;;;;;;9.63;9.33;;;1.10;99.90;;;;;;6330980;22;20199;-80
2022/03/24 04:53:35;;;;;;;10.20;9.90;;;1.10;99.90;;;;;;6324791;22;20216;-80
2022/03/24 04:56:08;;;;;;;10.30;10.00;;;1.10;99.90;;;;;;6329751;22;20259;-80
2022/03/24 04:58:43;;;;;;;10.40;10.10;;;1.20;99.90;;;;;;6330247;22;20212;-80
2022/03/24 05:01:16;;;;;;;10.60;10.30;;;1.20;99.90;;;;;;6334662;22;20184;-78
2022/03/24 05:03:46;;;;;;;10.70;10.40;;;1.20;99.90;;;;;;6326117;22;20207;-80
2022/03/24 05:06:22;;;;;;;10.83;10.53;;;1.20;99.90;;;;;;6328121;22;20204;-80
2022/03/24 05:08:50;;;;;;;11.07;10.77;;;1.20;99.90;;;;;;6327065;22;20195;-80
2022/03/24 05:11:29;;;;;;;10.97;10.67;;;1.20;99.90;;;;;;6331070;22;20208;-79
2022/03/24 05:13:59;;;;;;;10.40;10.10;;;1.20;99.90;;;;;;6326481;22;20245;-80
2022/03/24 05:16:27;;;;;;;10.50;10.20;;;1.20;99.90;;;;;;6331475;22;20200;-79
2022/03/24 05:19:04;;;;;;;10.60;10.30;;;1.20;99.90;;;;;;6326908;22;20185;-80
2022/03/24 05:21:34;;;;;;;10.33;10.03;;;1.20;99.90;;;;;;6327536;22;20212;-79
2022/03/24 05:24:12;;;;;;;10.57;10.27;;;1.10;99.90;;;;;;6330590;22;20197;-80
2022/03/24 05:26:52;;;;;;;10.37;10.07;;;1.10;99.90;;;;;;6332901;22;20212;-81
2022/03/24 05:32:10;;;;;;;10.60;10.30;;;1.10;99.90;;;;;;6319897;22;20192;-80
2022/03/24 05:37:42;;;;;;;10.50;10.20;;;1.00;99.90;;;;;;6319908;22;20208;-81
2022/03/24 05:40:19;;;;;;;10.77;10.47;;;1.00;99.90;;;;;;6322408;22;20184;-80
2022/03/24 05:43:33;;;;;;;10.90;10.60;;;1.00;99.90;;;;;;6325876;22;20193;-81
2022/03/24 05:46:07;;;;;;;10.57;10.27;;;0.90;99.90;;;;;;6324245;22;20207;-81
2022/03/24 05:48:42;;;;;;;10.90;10.60;;;0.90;99.90;;;;;;6323417;22;20220;-81
2022/03/24 05:51:12;;;;;;;10.83;10.53;;;1.00;99.90;;;;;;6323173;22;20303;-81
2022/03/24 05:53:42;;;;;;;10.70;10.40;;;1.00;99.90;;;;;;6323113;22;20204;-82
2022/03/24 05:56:10;;;;;;;10.50;10.20;;;1.10;99.90;;;;;;6319334;22;20228;-84
2022/03/24 05:58:40;;;;;;;10.70;10.40;;;1.10;99.90;;;;;;6321027;22;20200;-84
2022/03/24 06:01:09;;;;;;;10.80;10.50;;;1.10;99.90;;;;;;6321895;22;20197;-84
2022/03/24 06:03:37;;;;;;;10.60;10.30;;;1.20;99.90;;;;;;6322430;22;20197;-84
2022/03/24 06:06:06;;;;;;;10.70;10.40;;;1.30;99.90;;;;;;6325562;22;20205;-83
2022/03/24 06:08:35;;;;;;;11.00;10.70;;;1.30;99.90;;;;;;6339257;22;20169;-83
2022/03/24 06:11:04;;;;;;;10.83;10.53;;;1.40;99.90;;;;;;6322931;22;20193;-83
2022/03/24 06:13:34;;;;;;;10.70;10.40;;;1.30;99.90;;;;;;6322627;22;20276;-84
2022/03/24 06:16:04;;;;;;;10.90;10.60;;;1.30;99.90;;;;;;6321924;22;20201;-82
2022/03/24 06:18:32;;;;;;;10.40;10.10;;;1.40;99.90;;;;;;6321994;22;20264;-85
2022/03/24 06:21:00;;;;;;;10.40;10.10;;;1.40;99.90;;;;;;6322894;22;20189;-85
2022/03/24 06:23:28;;;;;;;10.80;10.50;;;1.50;99.90;;;;;;6321488;22;20704;-85
2022/03/24 06:25:56;;;;;;;10.90;10.60;;;1.60;99.90;;;;;;6322460;22;20207;-85
2022/03/24 06:28:25;;;;;;;10.60;10.30;;;1.60;99.90;;;;;;6322719;22;20196;-83
2022/03/24 06:30:53;;;;;;;10.80;10.50;;;1.70;99.90;;;;;;6324081;22;20197;-84
2022/03/24 06:33:23;;;;;;;10.60;10.30;;;1.70;99.90;;;;;;6322013;22;20201;-84
2022/03/24 06:35:51;;;;;;;10.77;10.47;;;1.80;99.90;;;;;;6324046;22;20205;-85
2022/03/24 06:38:19;;;;;;;10.63;10.33;;;1.80;99.90;;;;;;6324744;22;20256;-84
2022/03/24 06:40:47;;;;;;;11.10;10.80;;;1.90;99.90;;;;;;6324903;22;20196;-84
2022/03/24 06:43:15;;;;;;;10.80;10.50;;;2.00;99.90;;;;;;6322559;22;20193;-84
2022/03/24 06:45:43;;;;;;;11.10;10.80;;;2.10;99.90;;;;;;6323365;22;20200;-85
2022/03/24 06:48:11;;;;;;;11.10;10.80;;;2.20;99.90;;;;;;6325286;22;20199;-84
2022/03/24 06:50:41;;;;;;;10.73;10.43;;;2.20;99.90;;;;;;6325220;22;20193;-85
2022/03/24 06:53:09;;;;;;;11.10;10.80;;;2.30;99.90;;;;;;6324945;22;20197;-84
2022/03/24 06:55:38;;;;;;;11.00;10.70;;;2.50;99.90;;;;;;6323796;22;20476;-84
2022/03/24 06:58:06;;;;;;;11.03;10.73;;;2.60;99.90;;;;;;6327495;22;20199;-84
2022/03/24 07:00:46;;;;;;;10.70;10.40;;;2.70;99.90;;;;;;6327500;22;20253;-84
2022/03/24 07:03:14;;;;;;;10.97;10.67;;;2.80;99.90;;;;;;6340114;22;20236;-85
2022/03/24 07:05:44;;;;;;;10.97;10.67;;;2.90;99.90;;;;;;6341913;22;20205;-85
2022/03/24 07:08:12;;;;;;;11.07;10.77;;;3.10;99.90;;;;;;6341364;22;20212;-84
2022/03/24 07:10:39;;;;;;;11.03;10.73;;;3.20;99.90;;;;;;6335017;22;20196;-87
2022/03/24 07:13:07;;;;;;;11.00;10.70;;;3.30;99.90;;;;;;6318880;22;20201;-81
2022/03/24 07:15:35;;;;;;;10.67;10.37;;;3.50;99.90;;;;;;6320814;22;20229;-81
2022/03/24 07:18:05;;;;;;;10.80;10.50;;;3.60;99.90;;;;;;6324712;22;20185;-86
2022/03/24 07:20:40;;;;;;;10.70;10.40;;;3.70;99.90;;;;;;6331380;22;20196;-84
2022/03/24 07:23:13;;;;;;;10.80;10.50;;;3.80;99.90;;;;;;6320965;22;20189;-86
2022/03/24 07:25:41;;;;;;;10.83;10.53;;;4.00;99.90;;;;;;6320746;22;20252;-83
2022/03/24 07:28:11;;;;;;;11.10;10.80;;;4.20;99.90;;;;;;6323895;22;20223;-83
2022/03/24 07:30:40;;;;;;;11.00;10.70;;;4.30;99.90;;;;;;6324802;22;20223;-84
2022/03/24 07:33:10;;;;;;;10.73;10.43;;;4.40;99.90;;;;;;6323034;22;20193;-83
2022/03/24 07:35:38;;;;;;;10.97;10.67;;;4.50;99.90;;;;;;6324392;22;20212;-85
2022/03/24 07:38:07;;;;;;;10.90;10.60;;;4.70;99.90;;;;;;6324626;22;20196;-83
2022/03/24 07:40:38;;;;;;;11.07;10.77;;;4.80;99.90;;;;;;6323860;22;20193;-83
2022/03/24 07:43:06;;;;;;;10.93;10.63;;;5.00;99.90;;;;;;6323909;22;20201;-84
2022/03/24 07:45:38;;;;;;;10.80;10.50;;;5.10;99.90;;;;;;6325771;22;20219;-84
2022/03/24 07:48:12;;;;;;;10.80;10.50;;;5.30;99.90;;;;;;6322982;22;20197;-82
2022/03/24 07:50:42;;;;;;;10.60;10.30;;;5.40;99.90;;;;;;6326827;22;20190;-83
2022/03/24 07:53:53;;;;;;;11.00;10.70;;;5.60;99.90;;;;;;6344504;22;20165;-85
2022/03/24 07:56:25;;;;;;;10.60;10.30;;;5.80;99.90;;;;;;6344150;22;20231;-84
2022/03/24 07:58:53;;;;;;;10.50;10.20;;;6.00;99.90;;;;;;6344941;22;20193;-85
2022/03/24 08:01:28;;;;;;;10.83;10.53;;;6.10;99.90;;;;;;6344623;22;20252;-85
2022/03/24 08:04:02;;;;;;;10.90;10.60;;;6.30;99.90;;;;;;6344764;22;20204;-85
2022/03/24 08:06:35;;;;;;;10.63;10.33;;;6.50;99.90;;;;;;6343374;22;20256;-84
2022/03/24 08:09:03;;;;;;;10.90;10.60;;;6.50;99.90;;;;;;6338743;22;20195;-86
2022/03/24 08:11:32;;;;;;;10.90;10.60;;;6.60;99.90;;;;;;6344534;22;20243;-81
2022/03/24 08:14:00;;;;;;;11.03;10.73;;;6.80;99.90;;;;;;6344567;22;20233;-84
2022/03/24 08:16:28;;;;;;;10.67;10.37;;;7.00;99.90;;;;;;6344499;22;20200;-87
2022/03/24 08:18:57;;;;;;;10.47;10.17;;;7.10;99.90;;;;;;6344769;22;20225;-86
2022/03/24 08:21:27;;;;;;;10.70;10.40;;;7.20;99.90;;;;;;6343979;22;20196;-84
2022/03/24 08:23:55;;;;;;;10.80;10.50;;;7.40;99.90;;;;;;6341947;22;20195;-84
2022/03/24 08:26:26;;;;;;;10.70;10.40;;;7.70;99.90;;;;;;6341792;22;20205;-85
2022/03/24 08:28:58;;;;;;;10.97;10.67;;;7.90;99.90;;;;;;6342150;22;20177;-84
2022/03/24 08:31:27;;;;;;;10.60;10.30;;;8.10;99.90;;;;;;6341551;22;20245;-84
2022/03/24 08:33:55;;;;;;;11.00;10.70;;;8.30;99.90;;;;;;6342362;22;20188;-82
2022/03/24 08:36:23;;;;;;;10.90;10.60;;;8.50;99.90;;;;;;6338659;22;20225;-82
2022/03/24 08:38:51;;;;;;;10.90;10.60;;;8.60;99.90;;;;;;6335150;22;20196;-81
2022/03/24 08:41:19;;;;;;;10.83;10.53;;;8.80;99.90;;;;;;6336661;22;20192;-81
2022/03/24 08:43:47;;;;;;;11.10;10.80;;;9.00;99.90;;;;;;6338925;22;20183;-83
2022/03/24 08:46:16;;;;;;;10.80;10.50;;;9.20;99.90;;;;;;6338922;22;20256;-82
2022/03/24 08:48:44;;;;;;;10.30;10.00;;;9.50;99.90;;;;;;6338552;22;20179;-82
2022/03/24 08:51:12;;;;;;;10.90;10.60;;;9.80;99.90;;;;;;6338978;22;20217;-82
2022/03/24 08:53:40;;;;;;;11.27;10.97;;;10.10;99.90;;;;;;6328105;22;20201;-81
2022/03/24 08:56:10;;;;;;;10.40;10.10;;;10.20;99.90;;;;;;6323805;22;20213;-84
2022/03/24 08:58:38;;;;;;;10.03;9.73;;;10.40;99.90;;;;;;6318924;22;20231;-82
2022/03/24 09:01:06;;;;;;;10.40;10.10;;;10.60;99.90;;;;;;6319339;22;20204;-81
2022/03/24 09:03:35;;;;;;;10.20;9.90;;;10.90;99.90;;;;;;6318698;22;20228;-82
2022/03/24 09:06:09;;;;;;;10.00;9.70;;;11.00;99.90;;;;;;6320548;22;20204;-82
2022/03/24 09:08:37;;;;;;;10.30;10.00;;;11.40;99.90;;;;;;6323327;22;20219;-83
2022/03/24 09:11:08;;;;;;;10.20;9.90;;;11.70;99.90;;;;;;6323024;22;20195;-83
2022/03/24 09:13:36;;;;;;;10.53;10.23;;;12.00;99.90;;;;;;6321033;22;20769;-87
2022/03/24 09:16:13;;;;;;;10.87;10.57;;;12.50;99.90;;;;;;6319919;22;20200;-87
2022/03/24 09:18:45;;;;;;;11.00;10.70;;;13.00;99.90;;;;;;6319465;22;20199;-85
2022/03/24 09:21:16;;;;;;;10.77;10.47;;;13.20;99.90;;;;;;6320533;22;20245;-86
2022/03/24 09:23:53;;;;;;;10.60;10.30;;;13.50;99.90;;;;;;6319117;22;20193;-83
2022/03/24 09:26:24;;;;;;;10.60;10.30;;;13.50;99.90;;;;;;6318406;22;20209;-84
2022/03/24 09:29:10;;;;;;;10.50;10.20;;;13.60;99.90;;;;;;6317633;22;20201;-85
2022/03/24 09:31:39;;;;;;;10.77;10.47;;;13.80;99.90;;;;;;6320417;22;20224;-86
2022/03/24 09:34:28;;;;;;;10.67;10.37;;;13.70;99.90;;;;;;6316367;22;20201;-85
2022/03/24 09:36:56;;;;;;;10.33;10.03;;;13.70;99.90;;;;;;6320272;22;20227;-84
2022/03/24 09:39:24;;;;;;;10.27;9.97;;;13.70;99.90;;;;;;6321224;22;20288;-84
2022/03/24 09:41:53;;;;;;;10.80;10.50;;;14.10;99.90;;;;;;6322033;22;20199;-83
2022/03/24 09:44:21;;;;;;;10.50;10.20;;;14.30;99.90;;;;;;6322797;22;20224;-84
2022/03/24 09:46:49;;;;;;;10.57;10.27;;;14.70;99.90;;;;;;6322606;22;20231;-84
2022/03/24 09:49:17;;;;;;;10.70;10.40;;;15.00;99.90;;;;;;6320798;22;20203;-85
2022/03/24 09:51:47;;;;;;;10.70;10.40;;;15.20;99.90;;;;;;6320531;22;20189;-87
2022/03/24 09:54:15;;;;;;;10.73;10.43;;;15.10;99.90;;;;;;6319375;22;20193;-85
2022/03/24 09:56:43;;;;;;;10.77;10.48;;;15.30;99.90;;;;;;6319646;22;20268;-85
2022/03/24 09:59:10;;;;;;;10.80;10.50;;;15.70;99.90;;;;;;6320204;22;20197;-82
2022/03/24 10:01:40;;;;;;;11.02;10.73;;;15.90;99.90;;;;;;6321825;22;20207;-84
2022/03/24 10:04:11;;;;;;;11.07;10.77;;;16.10;99.90;;;;;;6320350;22;20197;-86
2022/03/24 10:06:41;;;;;;;11.02;10.73;;;16.40;99.90;;;;;;6320843;22;20197;-87
2022/03/24 10:09:11;;;;;;;10.65;10.35;;;16.60;99.90;;;;;;6319337;22;20237;-87
2022/03/24 10:11:39;;;;;;;10.65;10.35;;;17.10;99.90;;;;;;6320087;22;20193;-87
2022/03/24 10:14:09;;;;;;;10.50;10.20;;;17.20;99.90;;;;;;6325444;22;20173;-85
2022/03/24 10:16:45;;;;;;;10.10;9.80;;;17.20;99.90;;;;;;6326938;22;20227;-85
2022/03/24 10:19:20;;;;;;;9.90;9.60;;;17.40;99.90;;;;;;6318437;22;20225;-85
2022/03/24 10:21:51;;;;;;;9.80;9.50;;;17.70;99.90;;;;;;6319474;22;20188;-85
2022/03/24 10:24:22;;;;;;;9.90;9.60;;;18.00;99.90;;;;;;6319563;22;20258;-85
2022/03/24 10:26:53;;;;;;;9.75;9.45;;;18.30;99.90;;;;;;6320227;22;20197;-84
2022/03/24 10:29:23;;;;;;;9.90;9.60;;;18.40;99.90;;;;;;6321920;22;20201;-85
2022/03/24 10:31:56;;;;;;;9.77;9.48;;;18.40;99.90;;;;;;6321475;22;20200;-85
2022/03/24 10:34:34;;;;;;;9.70;9.40;;;18.40;99.90;;;;;;6319479;22;20319;-84
2022/03/24 10:37:07;;;;;;;9.90;9.60;;;18.50;99.90;;;;;;6319173;22;20276;-85
2022/03/24 10:39:37;;;;;;;10.00;9.70;;;18.30;99.90;;;;;;6317877;22;20197;-85
2022/03/24 10:42:15;;;;;;;9.80;9.50;;;18.70;99.90;;;;;;6318543;22;20189;-85
2022/03/24 10:45:15;;;;;;;9.60;9.30;;;19.00;99.90;;;;;;6318536;22;20211;-85
2022/03/24 10:47:47;;;;;;;9.77;9.48;;;19.30;99.90;;;;;;6318863;22;20196;-85
2022/03/24 10:50:39;;;;;;;9.70;9.40;;;19.30;99.90;;;;;;6318376;22;20247;-88
2022/03/24 10:53:10;;;;;;;9.75;9.45;;;19.50;99.90;;;;;;6321642;22;20242;-85
2022/03/24 10:55:59;;;;;;;10.25;9.95;;;19.90;99.90;;;;;;6321812;22;20201;-85
2022/03/24 10:58:33;;;;;;;10.15;9.85;;;20.20;99.90;;;;;;6322738;22;20188;-82
2022/03/24 11:01:04;;;;;;;10.18;9.88;;;20.50;99.90;;;;;;6324179;22;20204;-83
2022/03/24 11:03:33;;;;;;;9.80;9.50;;;20.40;99.70;;;;;;6321124;22;20189;-83
2022/03/24 11:06:09;;;;;;;10.13;9.82;;;20.50;98.10;;;;;;6329176;22;20216;-82
2022/03/24 11:08:38;;;;;;;9.93;9.63;;;20.90;99.40;;;;;;6322694;22;20211;-84
2022/03/24 11:11:14;;;;;;;9.80;9.50;;;20.80;99.20;;;;;;6319278;22;20255;-85
2022/03/24 11:13:49;;;;;;;9.95;9.65;;;21.20;97.70;;;;;;6317806;22;20200;-86
2022/03/24 11:16:22;;;;;;;10.10;9.80;;;21.50;97.30;;;;;;6317489;22;20222;-86
2022/03/24 11:18:51;;;;;;;10.00;9.70;;;22.00;96.10;;;;;;6318081;22;20192;-86
2022/03/24 11:21:32;;;;;;;9.90;9.60;;;22.10;95.40;;;;;;6319267;22;20201;-83
2022/03/24 11:24:01;;;;;;;10.23;9.93;;;21.90;92.90;;;;;;6324973;22;20204;-84
2022/03/24 11:26:30;;;;;;;10.30;10.00;;;21.70;92.80;;;;;;6323256;22;20197;-84
2022/03/24 11:28:59;;;;;;;10.40;10.10;;;21.70;92.20;;;;;;6319328;22;20211;-83
2022/03/24 11:31:31;;;;;;;10.30;10.00;;;22.20;92.00;;;;;;6319681;22;20219;-81
2022/03/24 11:34:01;;;;;;;10.32;10.02;;;22.10;91.70;;;;;;6318327;22;20185;-82
2022/03/24 11:36:31;;;;;;;10.00;9.70;;;22.30;91.60;;;;;;6320193;22;20208;-83
2022/03/24 11:39:02;;;;;;;10.25;9.95;;;22.30;91.40;;;;;;6320477;22;20251;-83
2022/03/24 11:41:40;;;;;;;10.27;9.98;;;22.20;91.40;;;;;;6320310;22;20220;-82
2022/03/24 11:44:13;;;;;;;10.30;10.00;;;22.40;90.70;;;;;;6320318;22;20193;-81
2022/03/24 11:46:49;;;;;;;10.50;10.20;;;22.40;90.80;;;;;;6321298;22;20196;-81
2022/03/24 11:49:22;;;;;;;10.43;10.13;;;22.30;89.90;;;;;;6337183;22;20189;-82
2022/03/24 11:52:12;;;;;;;10.45;10.15;;;22.40;88.00;;;;;;6341013;22;20189;-83
2022/03/24 11:57:59;;;;;;;10.65;10.35;;;22.50;88.20;;;;;;6327444;22;20203;-82
2022/03/24 12:13:31;;;;;;;9.95;9.65;;;23.30;83.90;;;;;;6300323;22;20222;-83
2022/03/24 12:39:13;;;;;;;10.50;10.20;;;25.60;73.10;;;;;;6057141;23;20206;-83
2022/03/24 12:42:08;;;;;;;10.45;10.15;;;25.50;71.40;;;;;;6245338;22;20386;-85
2022/03/24 12:45:02;;;;;;;10.60;10.30;;;25.30;74.50;;;;;;6260728;22;20206;-85
2022/03/24 12:47:42;;;;;;;10.98;10.68;;;25.40;73.10;;;;;;6267075;22;20202;-85
2022/03/24 12:50:45;;;;;;;11.20;10.90;;;25.70;73.40;;;;;;6328036;22;20189;-85
2022/03/24 12:53:16;;;;;;;10.80;10.50;;;25.80;69.20;;;;;;6328135;22;20193;-84
2022/03/24 12:59:01;;;;;;;10.60;10.30;;;25.50;66.70;;;;;;6324381;22;20233;-83
2022/03/24 13:01:30;;;;;;;10.45;10.15;;;24.80;65.70;;;;;;6327000;22;20189;-83
2022/03/24 13:04:05;;;;;;;10.60;10.30;;;24.90;65.30;;;;;;6323822;22;20284;-84
2022/03/24 13:06:35;;;;;;;10.25;9.95;;;25.20;64.50;;;;;;6329196;22;20200;-84
2022/03/24 13:09:22;;;;;;;10.43;10.13;;;25.20;68.80;;;;;;6334153;22;20177;-84
2022/03/24 13:12:02;;;;;;;10.30;10.00;;;25.40;63.70;;;;;;6336350;22;20248;-83
2022/03/24 13:14:46;;;;;;;10.60;10.30;;;25.20;65.60;;;;;;6309065;22;20202;-85
2022/03/24 13:18:24;;;;;;;10.40;10.10;;;25.70;64.50;;;;;;6333195;22;20201;-87
2022/03/24 13:48:09;;;;;;;11.20;10.90;;;26.10;61.60;;;;;;5151165;22;20258;-84
2022/03/24 13:50:48;;;;;;;11.00;10.70;;;25.60;62.00;;;;;;5142633;27;20318;-84
2022/03/24 13:53:23;;;;;;;11.50;11.20;;;25.60;60.40;;;;;;5141951;27;20392;-86
2022/03/24 15:12:45;;;;;;;10.48;10.18;;;26.90;55.30;;;;;;5124353;28;20750;-82
2022/03/24 15:24:27;;;;;;;10.45;10.15;;;26.80;54.00;;;;;;5103629;28;20225;-83
2022/03/24 15:30:03;;;;;;;10.68;10.38;;;27.10;55.50;;;;;;5111525;28;20225;-82
2022/03/24 15:32:32;;;;;;;10.35;10.05;;;27.40;54.40;;;;;;5108969;28;20279;-81
2022/03/24 15:35:10;;;;;;;10.20;9.90;;;27.40;54.00;;;;;;5105909;28;20316;-82
2022/03/24 15:37:47;;;;;;;9.90;9.60;;;27.10;54.00;;;;;;5107283;28;20218;-82
2022/03/24 15:40:28;;;;;;;10.10;9.80;;;26.90;54.00;;;;;;5085799;28;20229;-82
2022/03/24 15:43:05;;;;;;;10.10;9.80;;;26.70;54.50;;;;;;5085462;28;20233;-82
2022/03/24 15:45:36;;;;;;;10.10;9.80;;;26.70;54.90;;;;;;5086337;28;20240;-84
2022/03/24 15:48:13;;;;;;;10.10;9.80;;;26.70;55.10;;;;;;5087736;28;20241;-83
2022/03/24 15:50:52;;;;;;;10.15;9.85;;;27.00;55.80;;;;;;5095176;28;20257;-83
2022/03/24 15:56:16;;;;;;;10.40;10.10;;;27.20;55.80;;;;;;5085141;28;20240;-81
2022/03/24 15:58:47;;;;;;;10.52;10.23;;;26.90;55.40;;;;;;5086981;28;20218;-82
2022/03/24 16:01:27;;;;;;;10.60;10.30;;;26.80;55.50;;;;;;5085331;28;20236;-82
2022/03/24 16:06:59;;;;;;;10.65;10.35;;;26.80;55.70;;;;;;5084302;28;20226;-82
2022/03/24 16:12:49;;;;;;;10.30;10.00;;;27.30;56.30;;;;;;5095719;28;20260;-82